Time;durP1;ratioP1;P1;durP2;ratioP2;P2;SDS_P1;SDS_P2;PMS_P1;PMS_P2;Temp;Humidity;BMP_temperature;BMP_pressure;BME280_temperature;BME280_humidity;BME280_pressure;Samples;Min_cycle;Max_cycle;Signal;HPM_P1;HPM_P2
2023/04/01 00:00:22;;;;;;;58.38;8.70;;;;;;;11.97;80.75;99172.19;5057920;28;20132;-78
2023/04/01 00:02:48;;;;;;;56.15;8.80;;;;;;;12.49;79.46;99161.56;5075549;22;20127;-38
2023/04/01 00:05:14;;;;;;;55.25;9.07;;;;;;;11.98;80.89;99166.09;5062351;28;20122;-41
2023/04/01 00:07:40;;;;;;;51.60;8.57;;;;;;;12.25;80.69;99173.38;5058133;28;20055;-42
2023/04/01 00:10:07;;;;;;;52.28;7.82;;;;;;;11.78;82.13;99179.50;5059709;28;20029;-41
2023/04/01 00:12:33;;;;;;;53.42;7.97;;;;;;;12.26;80.55;99175.09;5084750;28;20111;-44
2023/04/01 00:14:58;;;;;;;36.28;7.03;;;;;;;11.89;81.16;99176.72;5097832;28;20038;-41
2023/04/01 00:17:24;;;;;;;38.63;7.15;;;;;;;12.25;80.67;99182.97;5084859;28;20028;-42
2023/04/01 00:19:49;;;;;;;37.17;6.50;;;;;;;12.34;80.01;99181.03;5097716;28;20039;-42
2023/04/01 00:22:15;;;;;;;24.67;5.38;;;;;;;12.10;80.82;99184.13;5104734;28;20398;-41
2023/04/01 00:24:40;;;;;;;25.02;4.97;;;;;;;12.26;80.59;99184.69;5101195;28;20049;-43
2023/04/01 00:27:07;;;;;;;35.58;6.35;;;;;;;12.49;79.39;99190.31;5104937;28;20557;-41
2023/04/01 00:29:32;;;;;;;31.02;5.68;;;;;;;11.98;80.88;99186.97;5104104;28;20042;-41
2023/04/01 00:31:58;;;;;;;23.02;5.50;;;;;;;12.17;80.61;99189.22;5100632;28;20024;-42
2023/04/01 00:34:23;;;;;;;26.77;6.13;;;;;;;12.25;80.14;99198.66;5105049;28;20035;-41
2023/04/01 00:36:50;;;;;;;29.80;5.90;;;;;;;12.07;81.16;99192.03;5100833;28;20031;-41
2023/04/01 00:39:16;;;;;;;26.08;5.70;;;;;;;11.92;81.08;99195.78;5103698;28;20027;-42
2023/04/01 00:41:41;;;;;;;31.80;6.28;;;;;;;11.81;81.69;99195.13;5100458;28;20036;-41
2023/04/01 00:44:25;;;;;;;30.15;6.10;;;;;;;11.98;81.05;99205.25;5104199;28;20401;-41
2023/04/01 00:46:52;;;;;;;26.67;6.65;;;;;;;12.06;81.30;99200.75;5101568;28;20062;-43
2023/04/01 00:49:20;;;;;;;34.80;7.07;;;;;;;12.00;81.07;99213.94;5087690;28;20031;-41
2023/04/01 00:51:50;;;;;;;28.67;6.30;;;;;;;12.05;81.49;99210.34;5100994;28;20505;-41
2023/04/01 00:54:18;;;;;;;42.30;7.65;;;;;;;11.96;80.71;99209.66;5104774;28;20460;-40
2023/04/01 00:56:55;;;;;;;34.72;7.57;;;;;;;12.01;80.55;99216.53;5099807;28;20058;-41
2023/04/01 00:59:26;;;;;;;35.95;7.85;;;;;;;12.19;80.68;99220.53;5102705;28;20028;-41
2023/04/01 01:01:52;;;;;;;40.47;8.10;;;;;;;11.81;81.31;99217.78;5099693;28;20458;-43
2023/04/01 01:04:29;;;;;;;39.90;7.38;;;;;;;11.92;81.39;99223.66;5104118;28;20067;-42
2023/04/01 01:07:06;;;;;;;39.63;8.05;;;;;;;12.06;80.88;99219.91;5100154;28;20035;-42
2023/04/01 01:10:01;;;;;;;35.65;7.03;;;;;;;11.87;81.44;99215.06;5103605;28;20062;-44
2023/04/01 01:12:45;;;;;;;33.28;7.43;;;;;;;12.08;81.16;99222.47;5082603;28;20035;-42
2023/04/01 01:15:10;;;;;;;33.17;5.75;;;;;;;12.00;81.19;99216.56;5100374;28;20035;-41
2023/04/01 01:18:02;;;;;;;33.15;5.72;;;;;;;12.14;81.01;99219.75;5102506;28;20035;-44
2023/04/01 01:20:36;;;;;;;24.83;5.55;;;;;;;12.09;80.44;99226.81;5099444;28;20239;-41
2023/04/01 01:23:04;;;;;;;28.55;5.78;;;;;;;12.27;80.66;99236.03;5099412;28;20040;-42
2023/04/01 01:25:45;;;;;;;24.30;5.72;;;;;;;12.01;81.54;99234.81;5103421;28;20035;-42
2023/04/01 01:28:33;;;;;;;24.90;4.85;;;;;;;11.92;81.00;99242.81;5100649;28;20039;-43
2023/04/01 01:31:24;;;;;;;21.75;4.07;;;;;;;11.94;80.44;99245.38;5099470;28;20032;-42
2023/04/01 01:34:06;;;;;;;26.40;4.72;;;;;;;11.86;81.05;99239.44;5099421;28;20066;-41
2023/04/01 01:36:34;;;;;;;18.23;4.22;;;;;;;12.06;80.27;99245.16;5103319;28;20405;-44
2023/04/01 01:39:03;;;;;;;27.13;5.03;;;;;;;11.92;80.84;99247.16;5099371;28;20455;-42
2023/04/01 01:41:30;;;;;;;27.08;5.28;;;;;;;12.23;79.84;99243.09;5103129;28;20111;-43
2023/04/01 01:43:58;;;;;;;24.20;4.60;;;;;;;12.08;80.00;99252.06;5081891;28;20110;-42
2023/04/01 01:46:27;;;;;;;30.38;5.15;;;;;;;11.91;81.31;99253.25;5103650;28;20120;-41
2023/04/01 01:48:55;;;;;;;22.20;4.88;;;;;;;12.11;81.15;99251.16;5098497;28;20035;-42
2023/04/01 01:51:21;;;;;;;23.77;4.57;;;;;;;12.05;80.97;99252.13;5103631;28;20085;-41
2023/04/01 01:53:47;;;;;;;25.45;4.72;;;;;;;12.12;80.29;99258.13;5099947;27;20477;-42
2023/04/01 01:56:13;;;;;;;21.17;4.32;;;;;;;11.89;81.22;99266.38;5102781;28;20023;-41
2023/04/01 01:58:49;;;;;;;27.38;5.20;;;;;;;12.11;80.16;99256.38;5102390;28;20035;-44
2023/04/01 02:01:20;;;;;;;22.05;4.97;;;;;;;12.12;80.41;99260.72;5100276;28;20043;-41
2023/04/01 02:03:47;;;;;;;25.95;5.40;;;;;;;12.26;80.04;99269.16;5099664;28;20032;-41
2023/04/01 02:06:18;;;;;;;30.92;5.18;;;;;;;12.05;80.52;99274.78;5103244;27;20108;-43
2023/04/01 02:08:57;;;;;;;28.63;5.43;;;;;;;12.30;80.17;99276.06;5099238;28;20085;-43
2023/04/01 02:11:46;;;;;;;25.55;5.43;;;;;;;12.39;79.53;99282.84;5104215;27;20059;-49
2023/04/01 02:14:20;;;;;;;28.63;6.53;;;;;;;12.47;79.09;99283.56;5099923;28;20024;-41
2023/04/01 02:16:57;;;;;;;30.00;6.65;;;;;;;12.41;79.07;99287.16;5099002;27;20035;-41
2023/04/01 02:19:27;;;;;;;23.80;5.40;;;;;;;12.52;79.16;99290.41;5103188;28;20516;-43
2023/04/01 02:21:57;;;;;;;25.65;5.28;;;;;;;12.44;78.91;99294.94;5099396;27;20050;-44
2023/04/01 02:24:26;;;;;;;23.58;6.13;;;;;;;12.28;79.81;99300.47;5103350;28;20024;-42
2023/04/01 02:26:52;;;;;;;23.98;6.40;;;;;;;12.35;79.98;99296.88;5099470;27;20043;-41
2023/04/01 02:29:20;;;;;;;23.80;6.00;;;;;;;12.57;79.05;99314.72;5103189;28;20035;-41
2023/04/01 02:31:46;;;;;;;20.25;6.25;;;;;;;12.52;78.92;99313.09;5098969;28;20039;-40
2023/04/01 02:34:11;;;;;;;23.50;6.82;;;;;;;12.62;78.74;99311.16;5103418;28;20398;-45
2023/04/01 02:36:38;;;;;;;24.60;7.20;;;;;;;12.65;78.91;99319.81;5106492;27;20418;-40
2023/04/01 02:39:05;;;;;;;26.23;8.52;;;;;;;12.54;79.17;99316.53;5106138;27;20114;-47
2023/04/01 02:41:30;;;;;;;29.95;9.75;;;;;;;12.46;80.11;99313.19;5108323;27;20028;-43
2023/04/01 02:43:58;;;;;;;28.63;9.35;;;;;;;12.34;80.34;99319.53;5100828;28;20122;-44
2023/04/01 02:46:24;;;;;;;29.90;11.20;;;;;;;12.68;78.96;99331.97;5101320;28;20115;-41
2023/04/01 02:48:49;;;;;;;24.33;9.45;;;;;;;12.53;79.25;99326.13;5100173;27;20489;-41
2023/04/01 02:51:14;;;;;;;25.58;8.50;;;;;;;12.58;79.59;99331.25;5104775;28;20091;-41
2023/04/01 02:53:40;;;;;;;26.92;8.15;;;;;;;12.88;78.20;99330.66;5100863;28;20039;-41
2023/04/01 02:56:05;;;;;;;22.05;7.70;;;;;;;12.53;79.30;99333.97;5103169;28;20027;-41
2023/04/01 02:58:30;;;;;;;24.25;7.90;;;;;;;12.86;78.63;99345.53;5104143;28;20051;-43
2023/04/01 03:00:56;;;;;;;21.42;7.68;;;;;;;12.52;79.95;99342.69;5099425;28;20032;-43
2023/04/01 03:03:21;;;;;;;23.42;7.95;;;;;;;12.56;79.18;99341.75;5102099;28;20104;-42
2023/04/01 03:05:46;;;;;;;22.83;8.15;;;;;;;12.58;79.89;99349.56;5098747;28;20042;-42
2023/04/01 03:08:12;;;;;;;32.67;9.40;;;;;;;12.19;80.55;99351.16;5102578;27;20027;-42
2023/04/01 03:10:37;;;;;;;31.92;9.13;;;;;;;12.65;79.16;99356.41;5103762;28;20024;-42
2023/04/01 03:13:03;;;;;;;26.08;8.95;;;;;;;12.45;79.99;99362.00;5099595;27;20459;-41
2023/04/01 03:15:28;;;;;;;33.00;9.70;;;;;;;12.49;79.87;99360.22;5105588;27;20059;-42
2023/04/01 03:17:53;;;;;;;26.55;9.27;;;;;;;12.44;80.06;99370.72;5103597;28;20031;-44
2023/04/01 03:20:19;;;;;;;26.50;8.48;;;;;;;12.65;79.19;99374.69;5108385;28;20411;-41
2023/04/01 03:22:45;;;;;;;26.77;8.30;;;;;;;12.48;79.81;99380.25;5101780;28;20039;-41
2023/04/01 03:25:11;;;;;;;23.98;7.57;;;;;;;12.30;80.69;99388.41;5101527;28;20041;-41
2023/04/01 03:27:37;;;;;;;25.23;7.80;;;;;;;12.43;80.29;99394.28;5102264;28;20031;-41
2023/04/01 03:30:06;;;;;;;28.08;8.52;;;;;;;12.44;80.13;99391.63;5097822;27;20035;-42
2023/04/01 03:32:31;;;;;;;22.00;8.07;;;;;;;12.63;79.88;99394.78;5101757;28;20111;-41
2023/04/01 03:34:56;;;;;;;26.08;8.05;;;;;;;12.69;79.07;99399.03;5098561;27;21608;-43
2023/04/01 03:37:23;;;;;;;23.65;7.72;;;;;;;12.77;78.96;99407.59;5103097;28;20570;-46
2023/04/01 03:39:48;;;;;;;28.48;7.75;;;;;;;12.80;79.17;99413.66;5099866;28;20115;-45
2023/04/01 03:42:14;;;;;;;24.27;7.22;;;;;;;12.80;78.21;99420.63;5102675;28;20464;-41
2023/04/01 03:44:39;;;;;;;21.73;7.35;;;;;;;13.08;77.52;99428.81;5098345;28;20569;-42
2023/04/01 03:47:05;;;;;;;21.05;7.07;;;;;;;12.85;78.68;99424.88;5101470;28;20083;-41
2023/04/01 03:49:31;;;;;;;22.55;7.60;;;;;;;12.57;79.78;99428.88;5101622;28;20035;-41
2023/04/01 03:51:58;;;;;;;22.48;7.32;;;;;;;12.58;79.83;99428.84;5098006;28;20035;-42
2023/04/01 03:54:23;;;;;;;19.13;6.75;;;;;;;12.67;79.58;99434.81;5100069;28;20063;-42
2023/04/01 03:56:48;;;;;;;22.70;7.35;;;;;;;12.57;80.05;99453.28;5102063;27;20450;-41
2023/04/01 03:59:14;;;;;;;22.75;7.22;;;;;;;12.77;78.97;99450.31;5106788;28;20092;-42
2023/04/01 04:01:39;;;;;;;23.45;7.65;;;;;;;12.50;80.51;99456.88;5108525;28;20035;-47
2023/04/01 04:04:05;;;;;;;29.30;8.40;;;;;;;12.36;80.55;99452.78;5105314;28;20031;-42
2023/04/01 04:06:31;;;;;;;26.35;8.48;;;;;;;12.25;81.38;99463.41;5108082;28;20046;-42
2023/04/01 04:08:56;;;;;;;28.73;9.00;;;;;;;11.90;81.85;99463.06;5106747;27;20024;-45
2023/04/01 04:11:22;;;;;;;28.17;9.45;;;;;;;12.28;81.32;99470.31;5110423;27;20039;-44
2023/04/01 04:13:48;;;;;;;27.67;9.13;;;;;;;12.31;80.67;99471.16;5107024;28;20114;-42
2023/04/01 04:16:15;;;;;;;25.65;8.63;;;;;;;12.12;81.12;99477.56;5111585;27;20085;-42
2023/04/01 04:18:41;;;;;;;27.50;8.90;;;;;;;12.32;79.95;99482.47;5106801;27;20028;-42
2023/04/01 04:21:06;;;;;;;24.25;8.27;;;;;;;12.39;79.46;99477.09;5109287;27;20042;-47
2023/04/01 04:23:33;;;;;;;25.60;8.52;;;;;;;12.19;81.01;99492.25;5111072;28;20055;-44
2023/04/01 04:26:05;;;;;;;20.05;8.07;;;;;;;12.41;79.69;99490.16;5101703;28;20101;-44
2023/04/01 04:28:31;;;;;;;25.10;9.02;;;;;;;12.35;79.95;99496.34;5110293;27;20100;-46
2023/04/01 04:30:57;;;;;;;25.52;8.77;;;;;;;12.36;79.67;99495.47;5105394;28;20034;-42
2023/04/01 04:33:23;;;;;;;25.23;9.13;;;;;;;12.42;79.06;99500.59;5109382;28;20477;-42
2023/04/01 04:35:49;;;;;;;26.23;10.65;;;;;;;12.31;79.98;99510.34;5104715;27;20543;-43
2023/04/01 04:38:15;;;;;;;27.80;10.55;;;;;;;12.27;79.75;99513.88;5104761;27;20278;-42
2023/04/01 04:40:41;;;;;;;24.52;10.18;;;;;;;12.17;80.17;99507.94;5101393;27;20036;-42
2023/04/01 04:43:12;;;;;;;28.13;11.05;;;;;;;12.41;79.31;99519.78;5102707;28;20126;-42
2023/04/01 04:45:38;;;;;;;26.27;10.82;;;;;;;12.17;80.08;99528.84;5103326;27;20080;-51
2023/04/01 04:48:03;;;;;;;27.25;10.65;;;;;;;12.15;80.67;99527.13;5102269;27;20451;-43
2023/04/01 04:50:28;;;;;;;26.02;10.20;;;;;;;12.11;80.45;99533.28;5104401;27;20092;-42
2023/04/01 04:52:54;;;;;;;25.08;10.20;;;;;;;12.41;79.04;99532.84;5100915;27;20027;-42
2023/04/01 04:55:20;;;;;;;26.92;10.00;;;;;;;12.24;80.06;99540.06;5103330;28;20520;-42
2023/04/01 04:57:45;;;;;;;24.63;9.13;;;;;;;12.06;80.72;99549.03;5101112;27;20081;-42
2023/04/01 05:00:11;;;;;;;23.10;8.93;;;;;;;12.27;79.88;99549.59;5103929;27;20568;-42
2023/04/01 05:02:36;;;;;;;21.20;8.63;;;;;;;12.70;78.83;99555.03;5102340;28;20474;-42
2023/04/01 05:05:02;;;;;;;20.13;8.10;;;;;;;12.57;78.70;99554.38;5100694;28;20115;-44
2023/04/01 05:07:27;;;;;;;19.50;7.97;;;;;;;11.81;80.98;99560.69;5104002;28;20374;-42
2023/04/01 05:09:52;;;;;;;24.30;8.25;;;;;;;12.20;80.06;99569.72;5099828;27;20034;-42
2023/04/01 05:12:18;;;;;;;25.27;8.55;;;;;;;12.39;79.66;99575.56;5104418;28;20371;-42
2023/04/01 05:14:43;;;;;;;25.83;10.27;;;;;;;12.07;80.33;99576.91;5099868;27;20031;-43
2023/04/01 05:17:10;;;;;;;22.73;8.77;;;;;;;12.19;79.98;99583.69;5105069;28;20477;-42
2023/04/01 05:19:35;;;;;;;23.45;8.82;;;;;;;12.40;79.32;99587.75;5104687;27;20031;-42
2023/04/01 05:22:01;;;;;;;22.20;8.23;;;;;;;11.94;81.15;99592.75;5101402;28;20093;-44
2023/04/01 05:24:26;;;;;;;22.42;8.35;;;;;;;12.15;79.86;99593.31;5105357;27;20045;-42
2023/04/01 05:26:51;;;;;;;26.95;8.57;;;;;;;12.12;80.28;99597.72;5100787;27;20046;-42
2023/04/01 05:29:17;;;;;;;21.70;8.45;;;;;;;12.50;78.90;99594.59;5104578;27;20027;-42
2023/04/01 05:31:42;;;;;;;22.73;8.32;;;;;;;12.37;79.66;99600.88;5100524;27;20038;-41
2023/04/01 05:34:07;;;;;;;26.98;8.98;;;;;;;12.14;80.29;99599.41;5104071;27;20024;-43
2023/04/01 05:36:33;;;;;;;22.05;8.88;;;;;;;12.11;80.55;99596.00;5104868;27;20122;-41
2023/04/01 05:38:58;;;;;;;22.05;9.15;;;;;;;12.35;79.14;99608.72;5101180;27;20036;-41
2023/04/01 05:41:24;;;;;;;24.08;9.07;;;;;;;11.81;80.99;99617.25;5106254;28;20024;-44
2023/04/01 05:43:49;;;;;;;23.52;9.32;;;;;;;11.99;81.05;99623.13;5101050;27;20028;-44
2023/04/01 05:46:15;;;;;;;25.63;9.82;;;;;;;12.27;79.53;99622.75;5104563;27;20072;-41
2023/04/01 05:48:40;;;;;;;23.83;9.68;;;;;;;12.05;80.48;99627.41;5102074;27;20065;-44
2023/04/01 05:51:06;;;;;;;21.35;8.75;;;;;;;12.01;80.97;99623.13;5106176;27;20031;-42
2023/04/01 05:53:31;;;;;;;27.90;10.00;;;;;;;12.03;80.44;99635.25;5104261;27;20398;-42
2023/04/01 05:55:56;;;;;;;23.92;9.38;;;;;;;12.11;79.45;99640.41;5100250;28;20027;-46
2023/04/01 05:58:22;;;;;;;23.02;10.10;;;;;;;12.02;80.74;99636.16;5103414;27;20259;-42
2023/04/01 06:00:47;;;;;;;24.25;9.82;;;;;;;12.19;79.70;99649.88;5100327;27;20043;-44
2023/04/01 06:03:12;;;;;;;23.58;9.48;;;;;;;12.07;79.24;99642.19;5102463;28;20442;-42
2023/04/01 06:05:43;;;;;;;25.60;10.70;;;;;;;12.04;80.39;99654.41;5101234;27;20046;-53
2023/04/01 06:08:15;;;;;;;27.17;11.13;;;;;;;12.01;80.08;99660.56;5101726;27;20549;-42
2023/04/01 06:10:48;;;;;;;24.95;11.10;;;;;;;11.93;80.56;99667.63;5101816;28;20043;-42
2023/04/01 06:13:51;;;;;;;22.15;11.18;;;;;;;12.30;79.62;99669.78;5102806;28;20027;-42
2023/04/01 06:16:48;;;;;;;21.65;9.75;;;;;;;12.38;78.98;99675.78;5099672;28;20039;-42
2023/04/01 06:19:43;;;;;;;22.65;10.07;;;;;;;12.22;79.06;99689.91;5098513;27;20031;-45
2023/04/01 06:22:24;;;;;;;25.10;11.25;;;;;;;12.35;78.86;99694.09;5098794;27;20405;-42
2023/04/01 06:25:07;;;;;;;23.23;10.90;;;;;;;12.28;79.04;99687.22;5099234;27;20031;-42
2023/04/01 06:27:41;;;;;;;22.00;9.93;;;;;;;12.18;78.92;99700.41;5102463;27;20039;-42
2023/04/01 06:30:25;;;;;;;;;;;;;;;12.19;79.38;99701.28;5099614;28;20439;-44
2023/04/01 06:33:00;;;;;;;26.88;9.40;;;;;;;12.14;78.89;99711.75;5098705;28;20024;-42
2023/04/01 06:35:39;;;;;;;23.85;9.50;;;;;;;12.16;79.01;99706.53;5101472;28;20034;-44
2023/04/01 06:38:29;;;;;;;24.77;8.10;;;;;;;12.08;79.83;99716.19;5098460;27;20115;-44
2023/04/01 06:41:32;;;;;;;24.35;9.30;;;;;;;12.26;79.02;99712.53;5099532;27;20024;-44
2023/04/01 06:44:00;;;;;;;21.65;9.00;;;;;;;12.11;79.47;99727.47;5066021;28;21656;-48
2023/04/01 06:46:32;;;;;;;24.90;8.95;;;;;;;12.07;80.07;99723.19;5101520;28;20032;-41
2023/04/01 06:49:17;;;;;;;21.90;8.73;;;;;;;12.29;79.16;99726.41;5099806;28;20058;-45
2023/04/01 06:51:58;;;;;;;16.85;7.90;;;;;;;12.27;79.51;99724.69;5098499;28;20027;-41
2023/04/01 06:54:36;;;;;;;18.83;7.82;;;;;;;12.35;78.33;99726.34;5102287;27;20043;-43
2023/04/01 06:57:28;;;;;;;16.88;7.88;;;;;;;12.45;78.77;99730.56;5098452;27;20076;-42
2023/04/01 06:59:58;;;;;;;17.80;8.48;;;;;;;12.49;78.55;99741.84;5098037;28;20042;-42
2023/04/01 07:02:35;;;;;;;19.33;7.80;;;;;;;12.47;78.68;99739.25;5103552;28;20494;-44
2023/04/01 07:05:01;;;;;;;18.45;7.82;;;;;;;12.54;78.17;99740.03;5098481;28;20451;-45
2023/04/01 07:07:30;;;;;;;14.65;6.43;;;;;;;12.27;78.92;99751.69;5105106;27;20049;-42
2023/04/01 07:09:59;;;;;;;14.43;7.28;;;;;;;12.29;79.28;99751.66;5093850;28;20485;-42
2023/04/01 07:12:35;;;;;;;14.95;6.90;;;;;;;12.56;78.33;99751.34;5103256;28;20020;-44
2023/04/01 07:15:23;;;;;;;13.35;6.50;;;;;;;12.29;79.24;99752.53;5099733;28;20063;-45
2023/04/01 07:17:56;;;;;;;9.50;5.25;;;;;;;12.44;78.00;99761.97;5101669;28;20036;-41
2023/04/01 07:20:30;;;;;;;9.73;5.60;;;;;;;12.31;78.01;99760.38;5107109;28;20366;-42
2023/04/01 07:23:02;;;;;;;10.55;5.43;;;;;;;12.70;77.40;99761.63;5102870;28;20040;-42
2023/04/01 07:25:33;;;;;;;10.13;5.18;;;;;;;12.76;77.39;99769.38;5104443;28;20027;-42
2023/04/01 07:28:19;;;;;;;10.68;5.68;;;;;;;12.48;78.20;99774.09;5101413;28;20369;-47
2023/04/01 07:31:10;;;;;;;11.27;5.38;;;;;;;12.51;77.77;99780.16;5100576;28;20183;-43
2023/04/01 07:33:41;;;;;;;13.23;5.90;;;;;;;12.64;77.22;99780.88;5104147;28;20031;-42
2023/04/01 07:36:39;;;;;;;12.63;5.47;;;;;;;12.68;77.51;99784.31;5101107;28;20032;-41
2023/04/01 07:39:16;;;;;;;17.52;5.85;;;;;;;12.49;77.68;99792.38;5094558;28;20038;-43
2023/04/01 07:41:59;;;;;;;17.35;6.03;;;;;;;12.75;77.38;99794.66;5102034;28;20044;-46
2023/04/01 07:45:08;;;;;;;17.00;6.63;;;;;;;12.90;77.13;99804.06;5100819;28;20035;-42
2023/04/01 07:47:46;;;;;;;14.98;6.30;;;;;;;12.79;76.94;99808.59;5098315;28;20032;-42
2023/04/01 07:50:17;;;;;;;12.55;5.93;;;;;;;12.74;76.65;99810.41;5098559;28;20056;-42
2023/04/01 07:52:55;;;;;;;13.82;6.10;;;;;;;12.80;76.94;99810.31;5099019;28;20070;-44
2023/04/01 07:56:18;;;;;;;14.88;6.47;;;;;;;12.73;77.20;99814.75;5102420;28;20115;-42
2023/04/01 07:59:02;;;;;;;16.65;5.90;;;;;;;12.52;77.54;99825.47;4992148;28;20042;-42
2023/04/01 08:01:37;;;;;;;14.15;6.10;;;;;;;12.61;77.05;99827.97;5000256;28;20037;-40
2023/04/01 08:04:25;;;;;;;17.75;6.10;;;;;;;12.51;77.70;99827.19;5075741;28;20161;-42
2023/04/01 08:07:17;;;;;;;13.75;5.43;;;;;;;12.59;77.75;99827.13;5098238;28;20042;-41
2023/04/01 08:09:54;;;;;;;13.73;6.28;;;;;;;12.99;76.73;99824.91;5098892;28;20036;-42
2023/04/01 08:12:41;;;;;;;17.25;6.13;;;;;;;12.69;77.48;99831.34;5103415;28;20028;-45
2023/04/01 08:15:09;;;;;;;12.90;6.15;;;;;;;12.88;76.91;99840.72;5100907;28;20032;-44
2023/04/01 08:17:49;;;;;;;14.57;6.20;;;;;;;12.85;76.80;99842.50;5100760;28;20032;-42
2023/04/01 08:20:49;;;;;;;17.88;6.90;;;;;;;12.91;76.99;99851.16;5097337;28;20449;-41
2023/04/01 08:23:56;;;;;;;16.85;6.40;;;;;;;12.70;76.99;99859.25;5093890;28;20035;-41
2023/04/01 08:26:46;;;;;;;12.45;5.93;;;;;;;12.79;77.07;99856.53;5034236;28;20037;-45
2023/04/01 08:29:23;;;;;;;14.40;6.18;;;;;;;12.96;76.59;99864.16;5034089;28;20049;-43
2023/04/01 08:31:55;;;;;;;13.48;6.50;;;;;;;12.90;76.68;99861.63;5074496;28;20099;-42
2023/04/01 08:34:36;;;;;;;14.88;6.43;;;;;;;12.93;76.45;99858.97;5101530;28;20038;-39
2023/04/01 08:37:10;;;;;;;16.40;7.03;;;;;;;12.94;76.21;99858.94;5097826;28;20031;-42
2023/04/01 08:39:50;;;;;;;;;;;;;;;12.85;76.59;99872.16;5102071;28;20035;-45
2023/04/01 08:42:48;;;;;;;15.95;6.50;;;;;;;12.54;76.97;99879.47;5098813;27;20289;-42
2023/04/01 08:45:31;;;;;;;16.27;6.82;;;;;;;12.92;76.99;99884.28;5060243;28;20118;-41
2023/04/01 08:48:30;;;;;;;17.77;6.45;;;;;;;12.85;76.81;99879.13;5093677;28;20089;-43
2023/04/01 08:51:16;;;;;;;15.57;6.63;;;;;;;12.57;76.88;99889.00;5099990;28;20091;-41
2023/04/01 08:54:00;;;;;;;19.50;6.57;;;;;;;13.00;76.78;99892.00;5099821;28;20040;-43
2023/04/01 08:56:29;;;;;;;16.88;6.15;;;;;;;13.06;76.22;99898.91;5103668;28;20031;-43
2023/04/01 08:59:18;;;;;;;14.55;6.05;;;;;;;12.69;76.96;99896.72;5100467;28;20045;-40
2023/04/01 09:02:20;;;;;;;17.98;6.80;;;;;;;13.06;76.39;99898.91;5099192;28;20343;-45
2023/04/01 09:05:10;;;;;;;15.32;6.25;;;;;;;12.92;75.94;99906.97;5098704;28;20097;-42
2023/04/01 09:07:35;;;;;;;21.17;6.68;;;;;;;13.13;75.83;99903.22;5101950;28;20094;-42
2023/04/01 09:10:11;;;;;;;17.40;6.82;;;;;;;13.03;76.59;99915.53;5099436;28;20442;-42
2023/04/01 09:13:21;;;;;;;18.10;6.80;;;;;;;13.22;75.63;99914.47;5103756;27;20040;-42
2023/04/01 09:16:20;;;;;;;17.50;6.40;;;;;;;12.91;76.17;99924.41;5050684;28;20040;-41
2023/04/01 09:19:16;;;;;;;19.77;7.47;;;;;;;13.06;76.15;99931.19;5065262;28;20244;-43
2023/04/01 09:22:07;;;;;;;20.38;7.18;;;;;;;12.96;77.06;99924.34;5099759;28;20357;-42
2023/04/01 09:24:43;;;;;;;17.35;6.28;;;;;;;12.91;76.56;99932.25;5103250;27;20405;-42
2023/04/01 09:27:29;;;;;;;16.00;5.95;;;;;;;13.33;75.72;99925.66;5099550;27;20039;-42
2023/04/01 09:29:54;;;;;;;12.65;4.93;;;;;;;12.91;76.83;99936.63;5101293;27;20020;-44
2023/04/01 09:32:31;;;;;;;13.10;5.20;;;;;;;13.23;76.10;99941.50;5109623;27;20501;-42
2023/04/01 09:35:30;;;;;;;15.20;6.00;;;;;;;13.31;75.74;99937.03;5098434;28;20130;-43
2023/04/01 09:38:19;;;;;;;12.20;5.70;;;;;;;13.42;75.13;99935.13;5099600;28;20033;-40
2023/04/01 09:41:03;;;;;;;9.77;5.07;;;;;;;13.01;76.06;99938.22;5099206;27;20031;-42
2023/04/01 09:43:48;;;;;;;8.57;4.50;;;;;;;12.99;76.03;99946.09;5103477;28;20089;-46
2023/04/01 09:46:41;;;;;;;10.48;4.35;;;;;;;13.11;76.17;99946.88;5098784;28;20365;-42
2023/04/01 09:49:26;;;;;;;10.10;4.38;;;;;;;13.13;75.62;99953.81;5103342;27;20515;-42
2023/04/01 09:52:10;;;;;;;9.63;4.90;;;;;;;13.35;75.51;99952.69;5095926;28;20393;-42
2023/04/01 09:54:44;;;;;;;9.47;4.40;;;;;;;13.07;76.55;99956.47;5102324;28;20532;-42
2023/04/01 09:57:42;;;;;;;12.15;5.32;;;;;;;13.20;76.47;99955.50;5100195;27;20045;-44
2023/04/01 10:00:32;;;;;;;13.82;6.10;;;;;;;12.76;77.32;99961.16;5099930;27;20342;-42
2023/04/01 10:03:00;;;;;;;16.10;6.63;;;;;;;12.98;77.21;99962.69;5098824;27;20413;-42
2023/04/01 10:05:53;;;;;;;18.08;6.93;;;;;;;12.73;78.09;99971.69;5096222;28;20028;-42
2023/04/01 10:08:41;;;;;;;22.42;8.23;;;;;;;13.10;77.29;99974.78;5098582;28;20040;-43
2023/04/01 10:11:33;;;;;;;20.33;7.43;;;;;;;13.07;76.38;99974.78;5101816;28;20460;-44
2023/04/01 10:14:05;;;;;;;19.85;8.10;;;;;;;13.26;76.70;99981.59;5085710;28;20069;-47
2023/04/01 10:16:53;;;;;;;18.00;6.95;;;;;;;13.04;77.07;99979.22;5101780;28;20084;-42
2023/04/01 10:19:37;;;;;;;17.95;6.85;;;;;;;13.26;76.53;99983.34;5099714;28;20124;-42
2023/04/01 10:22:21;;;;;;;17.10;6.43;;;;;;;12.62;77.81;99985.75;5097923;28;20035;-43
2023/04/01 10:25:14;;;;;;;20.35;7.30;;;;;;;13.03;77.38;99994.03;5102118;28;20042;-44
2023/04/01 10:28:08;;;;;;;20.48;8.18;;;;;;;12.89;77.97;99998.53;5098032;28;20028;-45
2023/04/01 10:30:53;;;;;;;20.57;8.07;;;;;;;13.14;77.31;100000.06;5097240;28;20027;-42
2023/04/01 10:33:24;;;;;;;;;;;;;;;13.34;76.51;99991.97;5079611;28;20081;-40
2023/04/01 10:36:14;;;;;;;14.68;6.32;;;;;;;13.28;76.51;100002.53;5097625;28;19926;-43
2023/04/01 10:38:45;;;;;;;14.60;6.32;;;;;;;13.26;76.68;99999.03;5098063;28;20123;-45
2023/04/01 10:41:38;;;;;;;16.55;6.53;;;;;;;13.18;76.37;100000.88;5101911;28;20038;-41
2023/04/01 10:44:28;;;;;;;17.90;6.90;;;;;;;13.00;76.78;100009.75;5097830;28;20397;-41
2023/04/01 10:47:06;;;;;;;17.48;6.65;;;;;;;13.05;77.20;100002.75;5098007;28;20096;-44
2023/04/01 10:50:10;;;;;;;15.80;6.28;;;;;;;12.78;77.24;100010.84;5102249;28;20039;-41
2023/04/01 10:53:07;;;;;;;14.85;6.38;;;;;;;13.14;76.51;100012.25;5099659;28;20382;-42
2023/04/01 10:56:03;;;;;;;16.38;6.22;;;;;;;12.99;77.01;100016.72;5052896;28;20093;-42
2023/04/01 10:58:31;;;;;;;14.98;6.03;;;;;;;13.10;76.90;100013.16;5098979;28;20027;-47
2023/04/01 11:01:22;;;;;;;16.27;6.43;;;;;;;13.30;76.16;100016.44;5098042;28;20032;-42
2023/04/01 11:04:09;;;;;;;12.98;5.55;;;;;;;13.19;77.01;100015.69;5097022;28;20104;-42
2023/04/01 11:06:37;;;;;;;13.85;5.57;;;;;;;13.26;76.41;100025.22;5100415;28;20042;-42
2023/04/01 11:09:02;;;;;;;14.23;5.80;;;;;;;13.30;76.01;100029.53;5097501;28;20032;-43
2023/04/01 11:12:00;;;;;;;13.68;5.40;;;;;;;13.43;75.69;100025.03;5102426;28;20175;-44
2023/04/01 11:14:34;;;;;;;15.18;6.25;;;;;;;13.37;75.85;100026.81;5098288;28;20433;-43
2023/04/01 11:17:00;;;;;;;;;;;;;;;13.22;76.44;100034.00;5079152;28;20497;-43
2023/04/01 11:19:28;;;;;;;13.73;5.77;;;;;;;12.99;77.74;100040.28;5102458;28;19999;-42
2023/04/01 11:22:09;;;;;;;14.55;5.70;;;;;;;13.39;76.25;100032.94;5097611;28;20281;-41
2023/04/01 11:24:49;;;;;;;12.68;5.45;;;;;;;13.32;76.39;100039.09;5102391;28;20031;-42
2023/04/01 11:27:30;;;;;;;13.35;5.53;;;;;;;13.59;75.84;100043.16;5098765;28;20031;-42
2023/04/01 11:30:20;;;;;;;12.52;5.15;;;;;;;13.26;76.13;100041.78;5098851;28;20169;-43
2023/04/01 11:33:04;;;;;;;13.57;5.35;;;;;;;13.58;75.53;100041.44;5098099;28;20465;-43
2023/04/01 11:35:34;;;;;;;12.60;5.45;;;;;;;13.78;74.66;100049.06;5097501;28;20028;-42
2023/04/01 11:38:02;;;;;;;13.35;6.20;;;;;;;13.73;75.10;100058.69;5097620;28;20035;-44
2023/04/01 11:40:40;;;;;;;11.70;5.30;;;;;;;13.32;75.84;100059.19;5101734;28;20031;-44
2023/04/01 11:43:29;;;;;;;14.50;6.10;;;;;;;13.86;74.83;100057.66;5098538;28;20108;-44
2023/04/01 11:46:11;;;;;;;12.25;5.65;;;;;;;13.32;76.46;100064.41;5077273;28;20051;-42
2023/04/01 11:48:42;;;;;;;13.00;5.60;;;;;;;13.68;75.84;100066.63;5100519;28;20100;-42
2023/04/01 11:51:45;;;;;;;15.05;6.57;;;;;;;13.31;76.89;100060.06;5095340;28;20515;-46
2023/04/01 11:54:55;;;;;;;11.35;5.70;;;;;;;13.33;76.27;100074.00;5098837;28;20050;-42
2023/04/01 11:57:43;;;;;;;13.32;5.50;;;;;;;13.16;76.18;100081.19;5099778;28;20034;-46
2023/04/01 12:00:20;;;;;;;13.15;5.43;;;;;;;13.59;75.11;100081.59;5101440;28;20036;-42